Time;durP1;ratioP1;P1;durP2;ratioP2;P2;SDS_P1;SDS_P2;PMS_P1;PMS_P2;Temp;Humidity;BMP_temperature;BMP_pressure;BME280_temperature;BME280_humidity;BME280_pressure;Samples;Min_cycle;Max_cycle;Signal;HPM_P1;HPM_P2
2023/09/22 00:02:03;;;;;;;;;;;;;;;13.42;100.00;-14723.06;4824542;29;20117;-72
2023/09/22 00:04:30;;;;;;;34.90;21.88;;;;;;;13.38;100.00;-14038.16;4819184;29;20015;-73
2023/09/22 00:06:56;;;;;;;33.22;21.48;;;;;;;13.26;100.00;-13693.88;4837605;29;20033;-73
2023/09/22 00:09:23;;;;;;;34.08;21.23;;;;;;;13.20;100.00;-13692.63;5591204;24;20021;-75
2023/09/22 00:11:48;;;;;;;;;;;;;;;13.17;100.00;-13008.03;4805250;29;20034;-74
2023/09/22 00:14:13;;;;;;;36.63;24.40;;;;;;;13.15;100.00;-13007.66;4819948;29;19917;-75
2023/09/22 00:16:39;;;;;;;34.63;21.70;;;;;;;13.14;100.00;-13007.56;4814332;29;20034;-74
2023/09/22 00:19:05;;;;;;;35.93;22.13;;;;;;;13.07;100.00;-13006.31;4822795;29;20034;-74
2023/09/22 00:21:34;;;;;;;31.92;22.50;;;;;;;13.04;100.00;-13005.78;4817125;29;20376;-74
2023/09/22 00:24:01;;;;;;;32.00;22.05;;;;;;;12.99;100.00;-13004.78;4819213;29;20046;-73
2023/09/22 00:34:12;;;;;;;40.90;23.65;;;;;;;12.93;100.00;-14371.06;5665886;24;20150;-72
2023/09/22 00:36:38;;;;;;;38.53;23.33;;;;;;;12.86;100.00;-14711.38;4828609;29;20045;-73
2023/09/22 00:39:04;;;;;;;38.07;24.10;;;;;;;12.89;100.00;-14712.09;4822990;29;20034;-73
2023/09/22 00:41:30;;;;;;;38.08;24.98;;;;;;;12.87;100.00;-15053.38;4800851;29;20035;-73
2023/09/22 00:43:55;;;;;;;43.60;25.90;;;;;;;12.89;100.00;-15395.41;4806364;29;20038;-72
2023/09/22 00:46:26;;;;;;;43.57;26.87;;;;;;;12.87;100.00;-15395.06;4823236;29;20379;-73
2023/09/22 00:48:52;;;;;;;46.40;25.73;;;;;;;12.88;100.00;-15736.81;4824632;29;20034;-73
2023/09/22 00:53:53;;;;;;;43.03;26.08;;;;;;;12.80;100.00;-16076.72;4981170;24;20092;-73
2023/09/22 00:56:21;;;;;;;38.20;26.60;;;;;;;12.82;100.00;-16077.06;4823244;29;20041;-74
2023/09/22 00:58:49;;;;;;;35.60;25.45;;;;;;;12.78;100.00;-16076.25;4825735;29;20407;-73
2023/09/22 02:36:59;;;;;;;27.85;15.40;;;;;;;12.84;100.00;-16760.75;5693939;24;20052;-78
2023/09/22 02:39:24;;;;;;;23.00;14.27;;;;;;;12.84;100.00;-16419.22;4873618;29;20041;-76
2023/09/22 02:41:50;;;;;;;26.40;14.33;;;;;;;12.85;100.00;-16761.00;4869071;29;20041;-77
2023/09/22 02:44:15;;;;;;;29.13;15.13;;;;;;;12.85;100.00;-16761.00;4874394;29;20554;-78
2023/09/22 02:46:41;;;;;;;26.73;13.80;;;;;;;12.89;100.00;-16761.84;4872959;29;20497;-78
2023/09/22 02:49:08;;;;;;;25.87;14.63;;;;;;;12.91;100.00;-16762.31;4871006;29;20033;-78
2023/09/22 03:25:04;;;;;;;25.13;12.55;;;;;;;12.95;100.00;-17104.97;5457953;23;20069;-76
2023/09/22 03:27:31;;;;;;;27.58;11.80;;;;;;;12.98;100.00;-17447.16;5751154;24;20050;-75
2023/09/22 03:29:57;;;;;;;23.42;11.57;;;;;;;12.92;100.00;-17104.13;4834757;29;20404;-73
2023/09/22 03:32:23;;;;;;;25.87;11.37;;;;;;;12.99;100.00;-17447.53;4827775;29;20057;-74
2023/09/22 03:34:49;;;;;;;21.40;11.35;;;;;;;12.98;100.00;-17447.16;4825177;29;20031;-74
2023/09/22 03:37:14;;;;;;;21.10;11.83;;;;;;;12.95;100.00;-17104.84;4836143;29;20046;-74
2023/09/22 03:39:41;;;;;;;19.30;10.53;;;;;;;12.89;100.00;-17103.50;4829767;29;20033;-72
2023/09/22 03:44:42;;;;;;;18.15;10.70;;;;;;;12.88;100.00;-17103.25;5343199;23;20119;-73
2023/09/22 03:47:07;;;;;;;19.47;11.43;;;;;;;12.81;100.00;-17101.50;4840818;29;20029;-74
2023/09/22 03:59:51;;;;;;;23.30;12.00;;;;;;;13.00;100.00;-18472.16;4819716;29;20051;-72
2023/09/22 04:02:17;;;;;;;23.50;12.17;;;;;;;13.04;100.00;-18473.38;4814242;29;20043;-77
2023/09/22 05:28:21;;;;;;;15.95;7.55;;;;;;;13.21;100.00;-10613.66;5792328;24;20029;-77
2023/09/22 05:30:46;;;;;;;13.57;6.93;;;;;;;13.24;100.00;-10271.75;5119045;24;20050;-77
2023/09/22 05:43:33;;;;;;;13.57;6.43;;;;;;;13.25;100.00;-7532.22;5084717;24;20069;-75
2023/09/22 05:45:59;;;;;;;14.27;6.37;;;;;;;13.25;100.00;-7189.63;4839367;29;20037;-74
2023/09/22 05:53:35;;;;;;;15.00;6.22;;;;;;;13.29;100.00;-4790.84;5292251;24;19923;-75
2023/09/22 05:56:09;;;;;;;28.73;6.17;;;;;;;13.26;100.00;-3076.19;4873493;29;20104;-74
2023/09/22 05:58:35;;;;;;;11.10;6.38;;;;;;;13.29;100.00;-674.53;4893155;24;20414;-74
2023/09/22 06:01:06;;;;;;;8.98;5.82;;;;;;;13.29;100.00;3446.19;4871108;29;20029;-73
2023/09/22 06:03:33;;;;;;;7.50;5.38;;;;;;;13.24;100.00;9634.59;4868206;29;20085;-75
2023/09/22 06:05:58;;;;;;;10.38;5.88;;;;;;;13.29;100.00;13767.13;4871470;29;20033;-75
2023/09/22 06:08:24;;;;;;;9.70;5.67;;;;;;;13.30;100.00;16869.25;4870472;29;20044;-74
2023/09/22 06:10:50;;;;;;;16.27;5.43;;;;;;;13.34;100.00;20664.91;4868740;29;20035;-74
2023/09/22 06:13:16;;;;;;;8.03;5.17;;;;;;;13.43;100.00;24121.78;4873611;29;20032;-74
2023/09/22 06:15:41;;;;;;;8.10;5.22;;;;;;;13.41;100.00;26539.81;4869747;29;20037;-74
2023/09/22 06:18:07;;;;;;;7.53;4.73;;;;;;;13.36;100.00;28266.19;4869492;29;20039;-74
2023/09/22 06:20:32;;;;;;;8.50;4.50;;;;;;;13.36;100.00;28957.88;4867688;29;20067;-74
2023/09/22 06:22:57;;;;;;;8.83;4.23;;;;;;;13.37;100.00;30688.47;4866750;29;20116;-74
2023/09/22 06:25:26;;;;;;;5.60;4.03;;;;;;;13.39;100.00;32073.69;4882690;29;20041;-74
2023/09/22 06:30:27;;;;;;;7.47;3.90;;;;;;;13.39;100.00;35190.44;5802947;24;20025;-75
2023/09/22 06:32:52;;;;;;;8.97;3.63;;;;;;;13.41;100.00;36577.72;4865042;29;20072;-73
2023/09/22 07:21:51;;;;;;;9.20;4.10;;;;;;;13.60;100.00;83671.28;5140642;24;19935;-73
2023/09/22 07:24:17;;;;;;;4.97;4.50;;;;;;;13.73;100.00;87902.47;4871593;29;20041;-72
2023/09/22 07:26:42;;;;;;;6.57;4.20;;;;;;;13.79;100.00;87560.78;4874336;29;20041;-72
2023/09/22 07:29:07;;;;;;;10.00;4.60;;;;;;;13.91;100.00;93555.63;4866290;29;20061;-73
2023/09/22 07:31:33;;;;;;;7.40;4.07;;;;;;;13.88;100.00;100593.06;4867379;29;20128;-75
2023/09/22 07:33:58;;;;;;;4.70;4.30;;;;;;;13.87;100.00;93196.75;4869491;29;20135;-74
2023/09/22 07:36:26;;;;;;;8.93;4.20;;;;;;;13.81;100.00;91428.88;4875346;29;20443;-77
2023/09/22 07:38:54;;;;;;;8.10;4.20;;;;;;;13.92;100.00;88282.63;5205071;24;20128;-77
2023/09/22 08:02:02;;;;;;;6.53;4.07;;;;;;;14.24;100.00;91847.53;5221640;23;19996;-74
2023/09/22 08:04:28;;;;;;;6.40;3.95;;;;;;;14.30;100.00;103840.31;4850089;29;20025;-74
2023/09/22 08:25:01;;;;;;;4.28;3.95;;;;;;;14.61;100.00;109901.47;5503422;24;19978;-72
2023/09/22 08:27:29;;;;;;;7.45;3.95;;;;;;;14.91;100.00;114914.69;4874094;29;20507;-73
2023/09/22 08:29:55;;;;;;;4.75;3.40;;;;;;;15.26;100.00;124920.00;4869763;29;20089;-72
2023/09/22 08:32:21;;;;;;;8.93;3.73;;;;;;;15.39;100.00;138474.88;4873075;29;20435;-72
2023/09/22 08:34:46;;;;;;;6.13;3.22;;;;;;;15.66;100.00;154329.31;4872681;29;20040;-73
2023/09/22 08:37:13;;;;;;;5.23;2.90;;;;;;;15.70;100.00;155348.34;4872763;29;20068;-73
2023/09/22 08:39:39;;;;;;;6.05;2.90;;;;;;;15.62;100.00;155326.25;4872929;29;20063;-73
2023/09/22 08:42:04;;;;;;;10.80;2.77;;;;;;;15.78;100.00;155367.84;4859990;29;20546;-73
2023/09/22 08:44:30;;;;;;;5.70;2.90;;;;;;;15.74;100.00;155358.75;4854181;29;20367;-75
2023/09/22 08:46:57;;;;;;;3.93;2.80;;;;;;;15.57;100.00;155314.56;4870304;29;20457;-75
2023/09/22 08:49:22;;;;;;;7.63;2.97;;;;;;;15.46;100.00;155285.97;4853763;29;20029;-73
2023/09/22 08:51:49;;;;;;;170.43;10.67;;;;;;;15.44;100.00;155280.78;4868583;29;20025;-75
2023/09/22 08:54:15;;;;;;;5.75;2.88;;;;;;;15.33;100.00;155250.91;5157722;24;20505;-75
2023/09/22 08:59:15;;;;;;;6.68;2.63;;;;;;;15.45;100.00;155282.06;5541544;24;20076;-77
2023/09/22 09:06:53;;;;;;;7.25;2.90;;;;;;;15.56;100.00;155310.66;5207162;24;19928;-76
2023/09/22 09:09:20;;;;;;;10.13;2.67;;;;;;;15.73;100.00;155356.16;4876799;29;20048;-77
2023/09/22 09:12:02;;;;;;;3.05;2.50;;;;;;;15.78;100.00;155369.16;4866145;29;20108;-77
2023/09/22 09:14:28;;;;;;;3.10;2.50;;;;;;;15.73;100.00;155356.16;4867901;29;20033;-77
2023/09/22 09:16:56;;;;;;;14.30;2.77;;;;;;;15.93;100.00;155406.84;4866843;29;20391;-77
2023/09/22 09:19:22;;;;;;;6.68;3.13;;;;;;;16.12;100.00;155456.28;4866846;29;20029;-77
2023/09/22 09:22:09;;;;;;;6.33;3.00;;;;;;;16.05;100.00;155439.34;4868550;29;20409;-76
2023/09/22 09:24:35;;;;;;;7.32;2.88;;;;;;;16.04;100.00;155435.44;4872862;29;20035;-77
2023/09/22 09:27:14;;;;;;;3.97;2.42;;;;;;;15.99;100.00;155422.44;4871888;29;20668;-77
2023/09/22 09:29:39;;;;;;;4.43;3.38;;;;;;;15.92;100.00;155405.56;4872722;29;20406;-77
2023/09/22 09:32:07;;;;;;;6.77;2.57;;;;;;;15.84;100.00;155384.75;4867533;29;20029;-77
2023/09/22 09:34:40;;;;;;;7.13;2.95;;;;;;;15.73;100.00;155356.16;4867526;29;20136;-77
2023/09/22 09:37:13;;;;;;;2.72;2.50;;;;;;;15.75;100.00;155360.06;4866109;29;20031;-76
2023/09/22 09:39:52;;;;;;;4.65;2.80;;;;;;;15.96;100.00;155415.94;4870118;29;20120;-77
2023/09/22 09:42:19;;;;;;;3.85;2.30;;;;;;;16.09;100.00;155449.78;4872651;29;20040;-77
2023/09/22 09:47:26;;;;;;;8.13;2.15;;;;;;;16.69;100.00;155604.56;5629821;24;20064;-76
2023/09/22 09:49:56;;;;;;;5.65;2.50;;;;;;;16.71;100.00;155609.78;4877790;29;20434;-77
2023/09/22 09:52:36;;;;;;;3.75;2.40;;;;;;;16.73;100.00;155614.97;4860123;29;20494;-77
2023/09/22 09:55:24;;;;;;;2.83;2.20;;;;;;;16.76;100.00;155622.81;4868208;29;20029;-76
2023/09/22 09:57:53;;;;;;;6.88;2.42;;;;;;;16.95;100.00;155673.53;4853551;29;20053;-77
2023/09/22 10:00:19;;;;;;;4.15;1.95;;;;;;;17.09;100.00;155708.66;4868630;29;20192;-77
2023/09/22 10:02:47;;;;;;;6.90;2.07;;;;;;;17.29;100.00;155762.00;4870038;29;20593;-78
2023/09/22 10:05:17;;;;;;;3.70;2.08;;;;;;;17.49;100.00;155812.81;4864095;29;20041;-76
2023/09/22 10:07:47;;;;;;;6.03;1.75;;;;;;;17.40;100.00;155789.41;4875228;29;20037;-77
2023/09/22 10:10:15;;;;;;;3.25;1.95;;;;;;;17.36;100.00;155778.94;4877209;29;20037;-76
2023/09/22 10:12:43;;;;;;;4.80;2.10;;;;;;;17.32;100.00;155768.50;4884308;29;20029;-76
2023/09/22 10:15:10;;;;;;;4.97;2.55;;;;;;;17.25;100.00;155751.63;4859642;29;20061;-73
2023/09/22 10:17:36;;;;;;;8.00;2.40;;;;;;;17.39;100.00;155788.09;4859757;29;20449;-74
2023/09/22 10:20:07;;;;;;;2.80;2.00;;;;;;;17.70;100.00;155868.81;4855889;29;20081;-76
2023/09/22 10:22:35;;;;;;;4.72;2.30;;;;;;;17.53;100.00;155824.56;4870299;29;20037;-75
2023/09/22 10:25:13;;;;;;;6.47;1.80;;;;;;;17.67;100.00;155859.69;4858453;29;20053;-76
2023/09/22 10:27:58;;;;;;;3.60;1.90;;;;;;;17.62;100.00;155846.69;4878004;29;20037;-76
2023/09/22 11:14:53;;;;;;;2.42;1.40;;;;;;;19.52;100.00;156341.84;5729727;24;20034;-76
2023/09/22 11:45:46;;;;;;;10.50;1.42;;;;;;;18.46;100.00;156065.50;5171993;24;20073;-77
2023/09/22 12:14:04;;;;;;;6.95;1.92;;;;;;;18.72;100.00;156134.53;5664853;24;20046;-75
2023/09/22 12:16:29;;;;;;;7.85;1.40;;;;;;;18.61;100.00;156104.53;4851383;29;20034;-75
2023/09/22 12:18:55;;;;;;;1.98;1.50;;;;;;;18.25;100.00;156010.75;4850442;29;20048;-76
2023/09/22 12:21:21;;;;;;;3.00;1.47;;;;;;;17.97;100.00;155937.78;4851994;29;20026;-76
2023/09/22 12:23:46;;;;;;;3.47;1.50;;;;;;;17.92;100.00;155924.81;4833384;29;20045;-76
2023/09/22 12:26:11;;;;;;;3.97;1.63;;;;;;;17.98;100.00;155941.69;4836001;29;20033;-75
2023/09/22 12:28:37;;;;;;;5.13;1.70;;;;;;;17.98;100.00;155941.69;4836326;29;20128;-75
2023/09/22 13:19:14;;;;;;;4.82;1.60;;;;;;;17.17;100.00;155729.47;5697711;24;20065;-76
2023/09/22 13:21:40;;;;;;;2.33;1.70;;;;;;;17.25;100.00;155751.63;4843791;29;20042;-76
2023/09/22 14:29:47;;;;;;;5.18;2.42;;;;;;;16.88;100.00;155655.34;5495880;24;20403;-75
2023/09/22 14:32:12;;;;;;;8.60;3.07;;;;;;;16.77;100.00;155625.38;4851952;29;20196;-75
2023/09/22 14:39:49;;;;;;;9.27;2.92;;;;;;;16.73;100.00;155614.97;5305997;24;20118;-73
2023/09/22 14:42:14;;;;;;;5.95;2.65;;;;;;;16.76;100.00;155622.81;4833889;29;20030;-74
2023/09/22 14:44:39;;;;;;;2.73;2.20;;;;;;;16.66;100.00;155598.06;4837371;29;20037;-72
2023/09/22 14:47:05;;;;;;;5.63;2.53;;;;;;;16.62;100.00;155587.69;4837144;29;20038;-73
2023/09/22 14:49:30;;;;;;;8.00;2.27;;;;;;;16.63;100.00;155588.94;4834931;29;20170;-73
2023/09/22 14:51:55;;;;;;;5.87;2.33;;;;;;;16.59;100.00;155578.59;4816578;29;20075;-73
2023/09/22 14:54:21;;;;;;;6.13;2.50;;;;;;;16.47;100.00;155547.34;4829287;29;20502;-76
2023/09/22 14:56:47;;;;;;;3.13;2.17;;;;;;;16.57;100.00;155573.34;4818408;29;20140;-73
2023/09/22 14:59:13;;;;;;;3.45;2.13;;;;;;;16.53;100.00;155562.94;4831482;29;20045;-74
2023/09/22 15:01:38;;;;;;;7.57;2.43;;;;;;;16.49;100.00;155553.84;4832377;29;20034;-73
2023/09/22 15:04:04;;;;;;;6.27;2.87;;;;;;;16.43;100.00;155536.97;4823935;29;20030;-74
2023/09/22 15:06:31;;;;;;;5.00;2.20;;;;;;;16.40;100.00;155529.13;4815346;29;20487;-72
2023/09/22 15:08:57;;;;;;;6.97;2.58;;;;;;;16.44;100.00;155540.81;4828082;29;20034;-73
2023/09/22 15:16:32;;;;;;;7.00;2.55;;;;;;;16.34;100.00;155513.47;5040092;24;20068;-75
2023/09/22 15:42:14;;;;;;;4.05;2.42;;;;;;;16.20;100.00;155478.38;4847547;24;20057;-75
2023/09/22 15:44:40;;;;;;;4.17;1.90;;;;;;;16.22;100.00;155483.56;4826086;29;20503;-75
2023/09/22 15:47:11;;;;;;;14.80;3.43;;;;;;;16.21;100.00;155479.66;4825691;29;20038;-75
2023/09/22 15:49:37;;;;;;;6.10;2.05;;;;;;;16.30;100.00;155504.41;4814010;29;20384;-75
2023/09/22 15:52:03;;;;;;;11.00;2.60;;;;;;;16.25;100.00;155490.06;4824846;29;20117;-74
2023/09/22 15:54:29;;;;;;;4.80;2.20;;;;;;;16.26;100.00;155492.66;4824840;29;20640;-75
2023/09/22 15:56:55;;;;;;;3.00;2.50;;;;;;;16.29;100.00;155501.78;4819102;29;20058;-77
2023/09/22 15:59:20;;;;;;;5.83;2.30;;;;;;;16.31;100.00;155505.66;4812322;29;20308;-77
2023/09/22 16:01:46;;;;;;;13.93;2.90;;;;;;;16.22;100.00;155483.56;4825995;29;20484;-76
2023/09/22 16:04:11;;;;;;;6.70;2.50;;;;;;;16.12;100.00;155456.28;4821354;29;20066;-76
2023/09/22 16:06:37;;;;;;;7.00;2.80;;;;;;;16.09;100.00;155448.44;4829410;29;20535;-73
2023/09/22 16:09:02;;;;;;;6.57;2.40;;;;;;;16.06;100.00;155441.94;4839471;29;20030;-72
2023/09/22 16:11:28;;;;;;;4.80;2.77;;;;;;;16.13;100.00;155460.19;4842123;29;20117;-74
2023/09/22 16:13:54;;;;;;;4.00;2.60;;;;;;;16.10;100.00;155451.03;4829138;29;20542;-73
2023/09/22 16:16:20;;;;;;;5.57;2.70;;;;;;;16.02;100.00;149829.19;4826952;29;20289;-73
2023/09/22 16:29:06;;;;;;;8.52;3.13;;;;;;;15.66;100.00;91360.97;5079131;24;20061;-75
2023/09/22 16:31:31;;;;;;;3.80;2.50;;;;;;;15.66;100.00;85722.19;4837466;29;20471;-74
2023/09/22 16:33:57;;;;;;;4.70;2.83;;;;;;;15.62;100.00;89591.25;4830441;29;20050;-75
2023/09/22 16:36:22;;;;;;;8.17;3.37;;;;;;;15.62;100.00;84659.41;4830787;29;20031;-75
2023/09/22 16:38:48;;;;;;;9.27;4.13;;;;;;;15.60;100.00;87121.66;4818400;29;20571;-75
2023/09/22 16:41:14;;;;;;;4.47;2.78;;;;;;;15.48;100.00;81473.03;4828057;29;20114;-74
2023/09/22 16:43:40;;;;;;;7.43;3.20;;;;;;;15.55;100.00;77263.91;4818421;29;20145;-75
2023/09/22 16:46:06;;;;;;;5.35;3.20;;;;;;;15.46;100.00;71284.28;4815920;29;20039;-74
2023/09/22 16:48:31;;;;;;;8.20;3.40;;;;;;;15.45;100.00;66726.00;4831010;29;20042;-74
2023/09/22 16:50:57;;;;;;;4.10;3.07;;;;;;;15.39;100.00;67069.06;4830394;29;20074;-75
2023/09/22 16:53:22;;;;;;;6.47;4.03;;;;;;;15.40;100.00;63218.31;4833069;29;20441;-75
2023/09/22 16:55:48;;;;;;;6.40;3.00;;;;;;;15.37;100.00;56220.06;4834078;29;20049;-76
2023/09/22 16:58:14;;;;;;;7.23;3.57;;;;;;;15.39;100.00;55174.28;4834325;29;20121;-76
2023/09/22 17:00:39;;;;;;;10.07;3.67;;;;;;;15.23;100.00;51319.03;4816164;29;20121;-74
2023/09/22 17:03:05;;;;;;;8.37;3.10;;;;;;;15.24;100.00;47135.56;4814215;29;20468;-74
2023/09/22 17:05:35;;;;;;;5.97;3.22;;;;;;;15.28;100.00;44699.56;4813309;29;20351;-76
2023/09/22 17:08:02;;;;;;;7.72;2.85;;;;;;;15.27;100.00;47137.97;4825287;29;20071;-76
2023/09/22 17:10:28;;;;;;;2.25;1.85;;;;;;;15.02;100.00;84574.97;4835638;29;20750;-76
2023/09/22 17:12:54;;;;;;;2.87;2.20;;;;;;;15.00;100.00;109620.28;4831836;29;20083;-76
2023/09/22 17:15:21;;;;;;;3.80;2.40;;;;;;;14.82;100.00;115605.91;4830966;29;20029;-76
2023/09/22 17:17:46;;;;;;;;;;;;;;;14.65;100.00;108141.63;4832714;29;20044;-76
2023/09/22 17:20:12;;;;;;;3.05;2.20;;;;;;;14.60;100.00;94015.41;4837311;29;19916;-76
2023/09/22 17:22:38;;;;;;;3.60;2.00;;;;;;;14.52;100.00;80990.75;4839003;29;20094;-76
2023/09/22 17:25:04;;;;;;;3.67;2.50;;;;;;;14.51;100.00;77479.88;4833222;29;20026;-77
2023/09/22 17:27:30;;;;;;;10.43;2.40;;;;;;;14.49;100.00;72569.28;4814748;29;20420;-77
2023/09/22 17:29:55;;;;;;;2.50;2.20;;;;;;;14.47;100.00;66965.84;4817725;29;20053;-77
2023/09/22 17:32:21;;;;;;;4.60;2.20;;;;;;;14.39;100.00;66956.84;5100883;24;20068;-73
2023/09/22 17:34:49;;;;;;;3.05;2.00;;;;;;;14.38;100.00;61013.50;4836373;29;20033;-77
2023/09/22 17:37:15;;;;;;;3.13;2.55;;;;;;;14.32;100.00;61356.06;4858687;29;20037;-77
2023/09/22 17:39:40;;;;;;;4.10;2.50;;;;;;;14.34;100.00;58564.81;4852444;29;20397;-76
2023/09/22 17:49:51;;;;;;;3.67;2.70;;;;;;;14.15;100.00;72178.25;4844174;29;19932;-77
2023/09/22 17:52:16;;;;;;;2.73;1.83;;;;;;;14.16;100.00;75681.75;4838240;29;20036;-76
2023/09/22 17:54:42;;;;;;;7.17;2.00;;;;;;;14.11;100.00;78479.66;4851011;29;20089;-77
2023/09/22 17:57:07;;;;;;;3.70;2.00;;;;;;;14.03;100.00;80223.19;4829749;29;20113;-76
2023/09/22 17:59:33;;;;;;;1.80;1.70;;;;;;;13.98;100.00;86183.41;4828108;29;20136;-76
2023/09/22 18:01:59;;;;;;;2.10;1.90;;;;;;;13.88;100.00;91791.31;4851855;29;20029;-76
2023/09/22 18:04:26;;;;;;;2.43;2.00;;;;;;;13.83;100.00;88619.94;4845892;29;20029;-76
2023/09/22 18:06:52;;;;;;;2.95;1.83;;;;;;;13.83;100.00;80897.63;4832343;29;20435;-76
2023/09/22 18:09:18;;;;;;;2.80;1.70;;;;;;;13.79;100.00;81943.69;4839116;29;20070;-75
2023/09/22 18:11:44;;;;;;;4.17;1.90;;;;;;;13.80;100.00;77737.88;4834768;29;20084;-76
2023/09/22 18:14:13;;;;;;;2.00;1.80;;;;;;;13.80;100.00;70386.53;4833640;29;20036;-76
2023/09/22 18:16:40;;;;;;;2.60;2.00;;;;;;;13.81;100.00;68639.19;4837688;29;20040;-76
2023/09/22 18:19:05;;;;;;;1.98;1.75;;;;;;;13.83;100.00;66893.69;4836384;29;20546;-77
2023/09/22 18:21:30;;;;;;;2.07;1.87;;;;;;;13.88;100.00;66898.78;4843619;29;20040;-76
2023/09/22 18:23:56;;;;;;;2.97;1.90;;;;;;;13.78;100.00;63394.50;4845380;29;20034;-75
2023/09/22 18:26:22;;;;;;;2.63;1.90;;;;;;;13.83;100.00;63399.84;4822588;29;20072;-76
2023/09/22 18:28:47;;;;;;;3.03;1.90;;;;;;;13.71;100.00;56062.53;4849136;29;20037;-76
2023/09/22 18:31:17;;;;;;;2.90;2.10;;;;;;;13.82;100.00;55375.97;5447055;24;20040;-74
2023/09/22 18:33:43;;;;;;;2.85;2.00;;;;;;;13.74;100.00;52582.09;4831519;29;20052;-75
2023/09/22 18:49:04;;;;;;;4.57;1.92;;;;;;;13.76;100.00;41110.75;5555008;24;20061;-77
2023/09/22 18:51:31;;;;;;;3.37;2.07;;;;;;;13.76;100.00;40416.09;4816093;29;20031;-77
2023/09/22 18:53:57;;;;;;;3.53;2.53;;;;;;;13.74;100.00;41803.38;4830698;29;20388;-76
2023/09/22 18:56:23;;;;;;;4.35;2.20;;;;;;;13.67;100.00;42145.59;4821869;29;20042;-76
2023/09/22 18:58:48;;;;;;;5.60;2.40;;;;;;;13.73;100.00;39719.91;4814603;29;20065;-76
2023/09/22 19:01:15;;;;;;;2.73;2.17;;;;;;;13.74;100.00;39373.53;4830244;29;20141;-75
2023/09/22 19:03:40;;;;;;;5.05;1.90;;;;;;;13.76;100.00;41804.81;4828685;29;20055;-76
2023/09/22 19:06:10;;;;;;;2.27;2.00;;;;;;;13.73;100.00;42844.47;4832412;29;20034;-76
2023/09/22 19:08:35;;;;;;;3.08;1.90;;;;;;;13.76;100.00;42152.06;4829784;29;20034;-76
2023/09/22 19:11:02;;;;;;;4.53;1.90;;;;;;;13.71;100.00;42496.06;4834831;29;20029;-76
2023/09/22 19:13:28;;;;;;;5.32;2.20;;;;;;;13.76;100.00;42152.41;4835129;29;20030;-76
2023/09/22 19:16:00;;;;;;;4.67;2.20;;;;;;;13.71;100.00;41454.06;4816471;29;20414;-75
2023/09/22 19:18:27;;;;;;;2.63;1.90;;;;;;;13.75;100.00;42498.59;4815392;29;20087;-76
2023/09/22 19:20:54;;;;;;;4.03;1.80;;;;;;;13.74;100.00;40762.19;4834316;29;20030;-75
2023/09/22 19:23:22;;;;;;;4.03;2.10;;;;;;;13.76;100.00;39027.91;4819386;29;20034;-77
2023/09/22 19:25:47;;;;;;;6.35;1.98;;;;;;;13.76;100.00;41110.75;4833645;29;20031;-73
2023/09/22 19:28:13;;;;;;;3.37;2.13;;;;;;;13.80;100.00;39725.00;4831026;29;20041;-74
2023/09/22 19:30:38;;;;;;;5.40;2.23;;;;;;;13.86;100.00;36606.28;4840557;29;20034;-74
2023/09/22 19:33:04;;;;;;;3.57;2.20;;;;;;;13.90;100.00;32794.91;4834357;29;20486;-74
2023/09/22 19:35:30;;;;;;;2.63;2.23;;;;;;;13.74;100.00;32093.06;4826037;29;20045;-73
2023/09/22 19:37:55;;;;;;;7.23;1.90;;;;;;;13.57;100.00;32430.22;4831984;29;20038;-72
2023/09/22 19:40:21;;;;;;;3.47;2.10;;;;;;;13.48;100.00;32771.44;4834510;29;20030;-73
2023/09/22 19:42:46;;;;;;;4.63;2.53;;;;;;;13.38;100.00;36575.84;4835146;29;20030;-72
2023/09/22 19:45:12;;;;;;;4.40;2.37;;;;;;;13.32;100.00;36572.06;4835790;29;20870;-72
2023/09/22 19:47:38;;;;;;;4.20;2.37;;;;;;;13.26;100.00;33104.91;4837264;29;20511;-73
2023/09/22 19:50:12;;;;;;;2.50;2.15;;;;;;;13.12;100.00;35520.72;4835101;29;20125;-73
2023/09/22 19:52:47;;;;;;;4.50;2.25;;;;;;;13.02;100.00;35860.59;4831385;29;20040;-72
2023/09/22 19:55:12;;;;;;;6.28;2.20;;;;;;;13.11;100.00;34481.00;4816334;29;20041;-73
2023/09/22 19:57:39;;;;;;;3.70;2.27;;;;;;;13.09;100.00;33441.31;4821023;29;20026;-74
2023/09/22 20:00:10;;;;;;;6.00;2.63;;;;;;;13.08;100.00;31364.88;4832402;29;20415;-73
2023/09/22 20:02:39;;;;;;;6.80;2.55;;;;;;;13.03;100.00;28941.56;4822560;29;20035;-73
2023/09/22 20:05:09;;;;;;;4.65;2.30;;;;;;;12.92;100.00;28244.56;4836887;29;20472;-73
2023/09/22 20:07:37;;;;;;;5.97;3.05;;;;;;;12.93;100.00;23755.41;4834632;29;20117;-72
2023/09/22 20:10:04;;;;;;;6.03;2.90;;;;;;;13.00;100.00;21687.41;4831205;29;20033;-73
2023/09/22 20:12:31;;;;;;;;;;;;;;;12.94;100.00;23755.84;4819990;29;20057;-73
2023/09/22 20:14:56;;;;;;;3.50;2.17;;;;;;;12.91;100.00;26516.88;4830943;29;20014;-73
2023/09/22 20:17:22;;;;;;;5.33;2.30;;;;;;;12.80;100.00;26511.56;4824494;29;20036;-75
2023/09/22 20:19:48;;;;;;;3.83;2.63;;;;;;;12.79;100.00;24439.63;4818009;29;20034;-73
2023/09/22 20:22:14;;;;;;;;;;;;;;;12.82;100.00;21335.75;4820559;29;20038;-74
2023/09/22 20:24:40;;;;;;;6.32;2.67;;;;;;;12.79;100.00;20989.56;4816661;29;20015;-72
2023/09/22 20:27:05;;;;;;;3.43;2.43;;;;;;;12.64;100.00;22708.22;4831407;29;20029;-74
2023/09/22 20:29:31;;;;;;;3.20;2.40;;;;;;;12.62;100.00;21328.22;4803364;29;20064;-74
2023/09/22 20:31:56;;;;;;;9.57;2.10;;;;;;;12.63;100.00;19604.81;4822561;29;20029;-73
2023/09/22 20:34:22;;;;;;;3.37;2.23;;;;;;;12.58;100.00;20637.22;4815181;29;20041;-75
2023/09/22 20:36:47;;;;;;;5.07;2.30;;;;;;;12.55;100.00;19257.44;4821614;29;20069;-74
2023/09/22 20:39:12;;;;;;;5.07;2.70;;;;;;;12.50;100.00;17189.19;4806461;29;20408;-74
2023/09/22 20:41:40;;;;;;;6.17;2.50;;;;;;;12.64;100.00;15471.63;4833909;29;20033;-74
2023/09/22 20:44:05;;;;;;;5.05;2.70;;;;;;;12.52;100.00;13403.50;4830086;29;20037;-74
2023/09/22 20:46:31;;;;;;;2.57;2.20;;;;;;;12.54;100.00;12028.22;4833754;29;20417;-74
2023/09/22 20:48:59;;;;;;;3.63;2.38;;;;;;;12.57;100.00;9965.72;4833864;29;20562;-73
2023/09/22 20:51:25;;;;;;;3.38;2.35;;;;;;;12.56;100.00;10309.28;4834360;29;20031;-73
2023/09/22 20:53:52;;;;;;;4.57;2.20;;;;;;;12.44;100.00;9963.22;4833900;29;20030;-75
2023/09/22 20:56:19;;;;;;;3.65;2.70;;;;;;;12.49;100.00;10651.75;4824889;29;20030;-74
2023/09/22 20:58:44;;;;;;;7.60;2.20;;;;;;;12.41;100.00;11681.44;4817408;29;20034;-73
2023/09/22 21:01:12;;;;;;;3.63;2.10;;;;;;;12.37;100.00;13055.97;4814503;29;20041;-73
2023/09/22 21:03:39;;;;;;;3.28;2.17;;;;;;;12.27;100.00;14085.16;4834335;29;20041;-74
2023/09/22 21:06:05;;;;;;;3.55;2.13;;;;;;;12.27;100.00;12365.91;4837543;29;20030;-72
2023/09/22 21:08:31;;;;;;;3.80;3.00;;;;;;;12.24;100.00;12365.09;4818543;29;20495;-73
2023/09/22 21:10:56;;;;;;;2.40;2.20;;;;;;;12.16;100.00;12019.53;4812547;29;20030;-73
2023/09/22 21:13:22;;;;;;;2.30;2.20;;;;;;;12.25;100.00;10646.88;4832520;29;20034;-75
2023/09/22 21:15:55;;;;;;;5.90;2.07;;;;;;;12.27;100.00;9616.38;4837617;29;20030;-73
2023/09/22 21:18:24;;;;;;;4.03;2.03;;;;;;;12.15;100.00;9614.25;4810563;29;20030;-76
2023/09/22 21:20:50;;;;;;;4.03;2.00;;;;;;;12.16;100.00;9957.84;4827598;29;20558;-75
2023/09/22 21:23:18;;;;;;;1.93;1.83;;;;;;;12.00;100.00;9611.34;4836848;29;20041;-74
2023/09/22 21:25:47;;;;;;;2.85;2.03;;;;;;;12.00;100.00;8238.00;4833702;29;20432;-74
2023/09/22 21:28:16;;;;;;;1.98;1.88;;;;;;;12.05;100.00;8238.91;4813466;29;20200;-74
2023/09/22 21:30:45;;;;;;;2.30;2.10;;;;;;;12.02;100.00;8581.72;4818837;29;20037;-74
2023/09/22 21:33:11;;;;;;;6.78;2.40;;;;;;;12.04;100.00;7895.34;4810427;29;20495;-74
2023/09/22 21:35:37;;;;;;;8.83;2.43;;;;;;;12.02;100.00;8238.31;4813491;29;20037;-74
2023/09/22 21:38:04;;;;;;;3.53;2.20;;;;;;;12.00;100.00;7894.81;4821482;29;20490;-74
2023/09/22 21:40:30;;;;;;;2.50;2.30;;;;;;;11.98;100.00;8580.94;4827748;29;20616;-74
2023/09/22 21:42:57;;;;;;;2.90;2.30;;;;;;;11.93;100.00;8580.19;4821409;29;20109;-73
2023/09/22 21:45:23;;;;;;;2.95;2.22;;;;;;;11.99;100.00;7551.34;4838978;29;20033;-73